Des Moines, Washington
Current Conditions -  °F | °C
As of 1:53 PM on Wednesday 22 Oct 2014 (Local Time) from KSEA Reporting Station
Light Rain Light Rain  
Wind Chill: 57°   Ceiling: 7000
Heat Index: 57°   Visibility: 9mi
Dew Point: 54°   Wind: 8mph
Humidity: 89%   Direction: 150°SSE
Pressure: 29.69"   Gusts: NA
Location:  47.41°N, 122.31°W
Report Text: KSEA 222053Z 15007KT 9SM -RA FEW006 SCT030 OVC070 14/12 A2969 RMK AO2 SLP060 P0006 60023 T01390122 58015
Loading
Personal Weather Stations






























Interactive Weather Map
Tropical Storm Tracking
New forecast layout! Learn more

10-Day Weather Forecast

Advertisements
Track Severe Weather on mobile